Time;durP1;ratioP1;P1;durP2;ratioP2;P2;SDS_P1;SDS_P2;PMS_P1;PMS_P2;Temp;Humidity;BMP_temperature;BMP_pressure;BME280_temperature;BME280_humidity;BME280_pressure;Samples;Min_cycle;Max_cycle;Signal;HPM_P1;HPM_P2
2021/09/14 00:01:07;;;;;;;0.90;0.40;;;;;;;3.03;65.96;97532.50;6184354;23;20072;-69
2021/09/14 00:03:33;;;;;;;0.20;0.20;;;;;;;3.01;66.03;97514.81;6158775;23;20012;-65
2021/09/14 00:05:58;;;;;;;0.20;0.20;;;;;;;2.93;66.61;97496.88;6186434;23;20485;-68
2021/09/14 00:08:25;;;;;;;0.50;0.50;;;;;;;2.92;66.81;97495.25;6186341;23;20009;-69
2021/09/14 00:10:51;;;;;;;0.22;0.22;;;;;;;2.92;66.76;97500.69;6186593;23;20346;-69
2021/09/14 00:13:17;;;;;;;0.45;0.45;;;;;;;2.93;67.11;97499.59;6186363;23;20009;-69
2021/09/14 00:15:43;;;;;;;0.20;0.20;;;;;;;2.94;67.18;97487.72;6186241;23;20020;-68
2021/09/14 00:18:09;;;;;;;0.20;0.20;;;;;;;2.96;67.23;97488.34;6186784;23;20016;-71
2021/09/14 00:20:35;;;;;;;0.20;0.20;;;;;;;2.94;67.40;97490.44;6186467;23;20013;-69
2021/09/14 00:23:02;;;;;;;0.20;0.20;;;;;;;2.95;67.41;97460.38;6186038;23;20013;-70
2021/09/14 00:25:28;;;;;;;0.20;0.20;;;;;;;2.95;67.56;97454.13;6186371;23;20009;-74
2021/09/14 00:27:54;;;;;;;0.50;0.50;;;;;;;2.97;67.74;97436.59;6185972;23;20024;-78
2021/09/14 00:30:20;;;;;;;0.20;0.20;;;;;;;3.01;67.82;97434.28;6187490;23;20023;-77
2021/09/14 00:32:46;;;;;;;0.20;0.20;;;;;;;3.01;67.98;97442.41;6160836;23;20009;-76
2021/09/14 00:35:11;;;;;;;0.20;0.20;;;;;;;3.01;68.34;97436.16;6186716;23;20062;-76
2021/09/14 00:37:37;;;;;;;0.20;0.20;;;;;;;3.00;68.49;97445.34;6186797;23;20009;-72
2021/09/14 00:40:05;;;;;;;0.20;0.20;;;;;;;3.05;68.35;97451.78;6187024;23;20019;-78
2021/09/14 00:42:31;;;;;;;0.20;0.20;;;;;;;3.09;68.38;97444.00;6187041;23;20091;-74
2021/09/14 00:44:57;;;;;;;0.22;0.22;;;;;;;3.10;68.51;97446.50;6187365;23;20013;-74
2021/09/14 00:47:23;;;;;;;0.30;0.30;;;;;;;3.18;68.43;97463.56;6187511;23;20092;-74
2021/09/14 00:49:49;;;;;;;0.30;0.30;;;;;;;3.25;68.42;97475.19;6186517;23;20722;-73
2021/09/14 00:52:15;;;;;;;0.30;0.30;;;;;;;3.30;68.61;97457.22;6186129;23;20021;-73
2021/09/14 00:54:41;;;;;;;0.20;0.20;;;;;;;3.26;68.86;97400.91;6185988;23;20092;-71
2021/09/14 00:57:07;;;;;;;0.20;0.20;;;;;;;3.23;69.28;97368.81;6185797;23;20016;-70
2021/09/14 00:59:33;;;;;;;0.20;0.20;;;;;;;3.19;69.80;97362.16;6185272;23;20017;-76
2021/09/14 01:01:59;;;;;;;0.20;0.20;;;;;;;3.18;69.65;97357.78;6186301;23;20013;-74
2021/09/14 01:04:25;;;;;;;0.20;0.20;;;;;;;3.21;69.72;97379.03;6187246;23;20381;-74
2021/09/14 01:06:52;;;;;;;0.20;0.20;;;;;;;3.32;69.75;97389.16;6187473;23;20009;-75
2021/09/14 01:09:19;;;;;;;0.40;0.40;;;;;;;3.40;69.70;97388.03;6190026;23;20028;-77
2021/09/14 01:11:45;;;;;;;0.20;0.20;;;;;;;3.49;69.61;97373.97;6192019;23;20020;-77
2021/09/14 01:14:11;;;;;;;0.20;0.20;;;;;;;3.55;69.59;97361.38;6189572;23;20023;-75
2021/09/14 01:16:39;;;;;;;0.20;0.20;;;;;;;3.53;69.94;97335.50;6189755;23;20013;-70
2021/09/14 01:19:07;;;;;;;0.20;0.20;;;;;;;3.47;70.18;97310.94;6186098;23;20013;-73
2021/09/14 01:21:34;;;;;;;0.20;0.20;;;;;;;3.42;70.70;97301.81;6187551;23;20009;-72
2021/09/14 01:24:01;;;;;;;0.38;0.30;;;;;;;3.37;71.04;97307.09;6193912;23;20020;-70
2021/09/14 01:26:27;;;;;;;0.20;0.20;;;;;;;3.39;70.89;97303.09;6186902;23;20118;-70
2021/09/14 01:28:54;;;;;;;0.20;0.20;;;;;;;3.42;71.08;97324.34;6185657;23;20016;-69
2021/09/14 01:31:21;;;;;;;0.20;0.20;;;;;;;3.50;70.76;97342.22;6186067;23;20013;-72
2021/09/14 01:33:51;;;;;;;0.20;0.20;;;;;;;3.63;70.78;97341.25;6186065;23;20013;-72
2021/09/14 01:36:18;;;;;;;0.20;0.20;;;;;;;3.70;70.69;97312.13;6159006;23;20100;-69
2021/09/14 01:38:44;;;;;;;0.20;0.20;;;;;;;3.71;70.75;97294.81;6184810;23;20012;-71
2021/09/14 01:41:11;;;;;;;0.38;0.38;;;;;;;3.62;71.23;97299.72;6186146;23;20020;-74
2021/09/14 01:43:37;;;;;;;0.30;0.30;;;;;;;3.55;71.59;97312.53;6185993;23;20065;-73
2021/09/14 01:46:04;;;;;;;0.30;0.30;;;;;;;3.52;71.73;97323.84;6185587;23;20076;-70
2021/09/14 01:48:30;;;;;;;0.20;0.20;;;;;;;3.58;71.83;97339.22;6185467;23;20008;-69
2021/09/14 01:50:56;;;;;;;0.20;0.20;;;;;;;3.66;71.67;97341.59;6185665;23;20013;-68
2021/09/14 01:53:24;;;;;;;0.20;0.20;;;;;;;3.73;71.66;97341.53;6184122;23;20020;-69
2021/09/14 01:55:51;;;;;;;0.20;0.20;;;;;;;3.75;71.82;97342.13;6159156;23;20040;-71
2021/09/14 01:58:18;;;;;;;0.20;0.20;;;;;;;3.81;71.75;97338.53;6183833;23;20529;-69
2021/09/14 02:00:54;;;;;;;0.20;0.20;;;;;;;3.84;71.72;97318.22;6184093;23;20017;-70
2021/09/14 02:03:25;;;;;;;0.35;0.35;;;;;;;3.81;71.91;97327.66;6184454;23;20013;-77
2021/09/14 02:38:35;;;;;;;0.20;0.20;;;;;;;3.95;74.05;97257.72;6185077;23;20013;-67
2021/09/14 02:41:20;;;;;;;0.20;0.20;;;;;;;3.94;74.46;97264.19;6184798;23;20095;-67
2021/09/14 02:43:57;;;;;;;0.30;0.30;;;;;;;3.96;74.63;97270.25;6185140;23;20067;-67
2021/09/14 03:00:23;;;;;;;0.20;0.20;;;;;;;3.98;75.77;97234.69;6182813;23;20024;-70
2021/09/14 03:02:50;;;;;;;0.20;0.20;;;;;;;3.99;75.92;97247.19;6183182;23;20009;-69
2021/09/14 03:05:16;;;;;;;0.20;0.20;;;;;;;4.03;75.97;97248.41;6183196;23;20024;-69
2021/09/14 03:07:42;;;;;;;0.20;0.20;;;;;;;4.09;76.22;97257.53;6183261;23;20528;-69
2021/09/14 03:10:09;;;;;;;0.20;0.20;;;;;;;4.16;76.31;97269.94;6183316;23;20013;-69
2021/09/14 03:12:34;;;;;;;0.20;0.20;;;;;;;4.25;76.31;97264.19;6183280;23;20009;-69
2021/09/14 03:15:00;;;;;;;0.17;0.17;;;;;;;4.29;76.60;97265.38;6183314;23;20008;-70
2021/09/14 03:17:26;;;;;;;0.10;0.10;;;;;;;4.31;76.77;97255.91;6183225;23;20099;-70
2021/09/14 03:19:52;;;;;;;0.20;0.20;;;;;;;4.38;77.15;97250.38;6182961;23;20013;-69
2021/09/14 03:22:17;;;;;;;0.20;0.20;;;;;;;4.46;77.31;97258.22;6183150;23;20104;-69
2021/09/14 03:24:44;;;;;;;0.20;0.20;;;;;;;4.49;77.25;97246.88;6183240;23;20485;-69
2021/09/14 03:27:09;;;;;;;0.20;0.20;;;;;;;4.46;77.66;97244.63;6182993;23;20061;-69
2021/09/14 03:29:35;;;;;;;0.20;0.20;;;;;;;4.46;78.04;97241.91;6182667;23;20442;-70
2021/09/14 03:32:01;;;;;;;0.20;0.20;;;;;;;4.46;78.26;97250.06;6183413;23;20020;-69
2021/09/14 03:34:27;;;;;;;0.20;0.20;;;;;;;4.49;78.35;97249.59;6183204;23;20093;-69
2021/09/14 03:36:53;;;;;;;0.20;0.20;;;;;;;4.56;78.60;97268.50;6183071;23;20009;-69
2021/09/14 03:39:18;;;;;;;0.20;0.20;;;;;;;4.58;78.65;97236.47;6182821;23;20373;-69
2021/09/14 03:41:44;;;;;;;0.20;0.20;;;;;;;4.57;78.91;97246.50;6183099;23;20327;-69
2021/09/14 03:44:10;;;;;;;0.20;0.20;;;;;;;4.59;79.33;97227.25;6183239;23;20012;-68
2021/09/14 03:46:35;;;;;;;0.20;0.20;;;;;;;4.61;79.45;97214.25;6181102;23;20009;-68
2021/09/14 03:49:03;;;;;;;0.20;0.20;;;;;;;4.74;79.56;97226.78;6183046;23;20036;-68
2021/09/14 03:51:29;;;;;;;0.20;0.20;;;;;;;4.89;79.40;97215.44;6181138;23;20084;-68
2021/09/14 03:53:55;;;;;;;0.20;0.20;;;;;;;5.05;79.21;97213.88;6182984;23;20092;-67
2021/09/14 03:56:21;;;;;;;0.20;0.20;;;;;;;5.16;79.39;97213.03;6183034;23;20036;-68
2021/09/14 03:58:47;;;;;;;0.20;0.20;;;;;;;5.13;79.68;97205.34;6182194;23;20009;-68
2021/09/14 04:01:12;;;;;;;0.20;0.20;;;;;;;5.20;79.89;97208.78;6183213;23;20019;-69
2021/09/14 04:03:43;;;;;;;0.20;0.20;;;;;;;5.17;80.19;97201.09;6183056;23;20092;-68
2021/09/14 04:08:54;;;;;;;0.20;0.20;;;;;;;5.19;80.77;97217.16;6182929;23;20032;-68
2021/09/14 04:11:21;;;;;;;0.20;0.20;;;;;;;5.25;80.75;97206.13;6182548;23;20013;-67
2021/09/14 04:13:51;;;;;;;0.20;0.20;;;;;;;5.29;80.88;97208.41;6182847;23;20016;-68
2021/09/14 04:16:18;;;;;;;0.20;0.20;;;;;;;5.30;81.08;97200.00;6182871;23;20020;-68
2021/09/14 04:18:45;;;;;;;0.20;0.20;;;;;;;5.36;81.17;97206.34;6182741;23;20013;-67
2021/09/14 04:21:11;;;;;;;0.20;0.20;;;;;;;5.39;81.35;97211.34;6182805;23;20327;-67
2021/09/14 04:23:37;;;;;;;0.20;0.20;;;;;;;5.41;81.45;97214.63;6181210;23;20096;-67
2021/09/14 04:26:03;;;;;;;0.20;0.20;;;;;;;5.43;81.71;97207.88;6182532;23;20524;-68
2021/09/14 04:28:30;;;;;;;0.20;0.20;;;;;;;5.48;81.86;97198.16;6182028;23;20013;-68
2021/09/14 04:30:57;;;;;;;0.20;0.20;;;;;;;5.55;81.87;97205.13;6182704;23;20020;-67
2021/09/14 04:33:22;;;;;;;0.20;0.20;;;;;;;5.55;82.02;97205.13;6182601;23;20358;-67
2021/09/14 04:35:48;;;;;;;0.20;0.20;;;;;;;5.56;82.31;97189.63;6178082;23;20009;-67
2021/09/14 04:38:14;;;;;;;0.20;0.20;;;;;;;5.61;82.28;97184.28;6182049;23;20023;-66
2021/09/14 04:40:40;;;;;;;0.20;0.20;;;;;;;5.72;82.45;97186.09;6181530;23;20108;-68
2021/09/14 04:43:05;;;;;;;0.20;0.20;;;;;;;5.83;82.37;97189.03;6182509;23;20442;-65
2021/09/14 04:45:31;;;;;;;0.20;0.20;;;;;;;5.84;82.37;97185.22;6182713;23;20020;-66
2021/09/14 04:47:57;;;;;;;0.20;0.20;;;;;;;5.83;82.63;97180.84;6182295;23;20079;-67
2021/09/14 04:50:23;;;;;;;0.20;0.20;;;;;;;5.85;82.79;97181.44;6182037;23;20013;-67
2021/09/14 04:52:48;;;;;;;0.20;0.20;;;;;;;5.89;82.90;97179.88;6184363;23;20299;-67
2021/09/14 04:55:14;;;;;;;0.20;0.20;;;;;;;6.01;82.95;97186.13;6184568;23;20040;-67
2021/09/14 04:57:40;;;;;;;0.20;0.20;;;;;;;6.14;82.88;97174.09;6183637;23;20019;-66
2021/09/14 05:00:06;;;;;;;0.20;0.20;;;;;;;6.28;82.78;97169.94;6184360;23;20040;-66
2021/09/14 05:02:33;;;;;;;0.20;0.20;;;;;;;6.40;82.87;97166.31;6184914;23;20074;-64
2021/09/14 05:04:59;;;;;;;0.20;0.20;;;;;;;6.47;82.80;97150.63;6185502;23;20063;-65
2021/09/14 05:07:24;;;;;;;0.20;0.20;;;;;;;6.54;82.86;97151.28;6185653;23;20080;-65
2021/09/14 05:09:50;;;;;;;0.20;0.20;;;;;;;6.60;82.98;97144.81;6185938;23;20009;-65
2021/09/14 05:12:16;;;;;;;0.20;0.20;;;;;;;6.65;83.07;97136.72;6185598;23;20009;-65
2021/09/14 05:14:41;;;;;;;0.20;0.20;;;;;;;6.73;83.12;97137.34;6184109;23;20020;-65
2021/09/14 05:17:07;;;;;;;0.17;0.17;;;;;;;6.82;83.05;97135.88;6184868;23;20092;-66
2021/09/14 05:19:34;;;;;;;0.20;0.20;;;;;;;6.90;83.14;97131.88;6184837;23;20013;-66
2021/09/14 05:22:02;;;;;;;0.20;0.20;;;;;;;6.97;83.16;97132.50;6185382;23;20135;-66
2021/09/14 05:24:29;;;;;;;0.20;0.20;;;;;;;7.05;83.33;97123.06;6184818;23;20019;-68
2021/09/14 05:26:56;;;;;;;0.20;0.20;;;;;;;7.01;83.42;97120.81;6184986;23;20025;-65
2021/09/14 05:29:22;;;;;;;0.20;0.20;;;;;;;7.11;83.43;97114.69;6184412;23;20013;-66
2021/09/14 05:31:48;;;;;;;0.20;0.20;;;;;;;7.20;83.46;97109.59;6184950;23;20060;-64
2021/09/14 05:34:14;;;;;;;0.20;0.20;;;;;;;7.31;83.47;97105.06;6185584;23;20492;-65
2021/09/14 05:36:41;;;;;;;0.20;0.20;;;;;;;7.47;83.25;97097.88;6185488;23;20009;-64
2021/09/14 05:39:08;;;;;;;0.20;0.20;;;;;;;7.63;83.33;97107.88;6185642;23;20020;-64
2021/09/14 05:41:33;;;;;;;0.20;0.20;;;;;;;7.74;82.85;97094.31;6185609;23;20013;-65
2021/09/14 05:43:59;;;;;;;0.20;0.20;;;;;;;7.83;82.90;97090.03;6185599;23;20009;-64
2021/09/14 05:46:25;;;;;;;0.20;0.20;;;;;;;7.89;83.11;97094.44;6185523;23;20012;-65
2021/09/14 05:48:52;;;;;;;0.20;0.20;;;;;;;7.97;83.09;97084.97;6185512;23;20013;-64
2021/09/14 05:51:19;;;;;;;0.20;0.20;;;;;;;8.12;83.14;97087.00;6185511;23;20009;-64
2021/09/14 05:53:45;;;;;;;0.20;0.20;;;;;;;8.24;83.06;97074.81;6185309;23;20024;-64
2021/09/14 05:56:11;;;;;;;0.20;0.20;;;;;;;8.45;82.73;97082.34;6185718;23;20016;-64
2021/09/14 05:58:36;;;;;;;0.20;0.20;;;;;;;8.54;82.79;97081.59;6185088;23;20009;-63
2021/09/14 06:01:03;;;;;;;0.20;0.20;;;;;;;8.64;82.71;97080.81;6184901;23;20012;-63
2021/09/14 06:03:29;;;;;;;0.20;0.20;;;;;;;8.76;83.04;97080.63;6185267;23;20013;-64
2021/09/14 06:05:56;;;;;;;0.20;0.20;;;;;;;8.82;82.99;97073.22;6185269;23;20450;-63
2021/09/14 06:08:22;;;;;;;0.20;0.20;;;;;;;8.86;83.05;97068.88;6185042;23;20032;-63
2021/09/14 06:10:48;;;;;;;0.20;0.20;;;;;;;9.05;83.14;97064.56;6185521;23;20319;-63
2021/09/14 06:13:14;;;;;;;0.20;0.20;;;;;;;9.37;82.71;97060.84;6185508;23;20350;-63
2021/09/14 06:15:40;;;;;;;0.20;0.20;;;;;;;9.60;82.50;97058.72;6184841;23;20009;-62
2021/09/14 06:18:06;;;;;;;0.20;0.20;;;;;;;9.75;82.74;97057.91;6184841;23;20036;-63
2021/09/14 06:20:32;;;;;;;0.20;0.20;;;;;;;9.88;82.52;97051.91;6185377;23;20017;-63
2021/09/14 06:22:58;;;;;;;0.20;0.20;;;;;;;9.99;82.69;97060.94;6185152;23;20009;-64
2021/09/14 06:25:23;;;;;;;0.20;0.20;;;;;;;9.97;83.08;97065.88;6185168;23;20346;-63
2021/09/14 06:27:49;;;;;;;0.20;0.20;;;;;;;9.89;83.44;97069.97;6184487;23;20084;-65
2021/09/14 06:30:15;;;;;;;0.20;0.20;;;;;;;9.84;83.79;97074.66;6185131;23;20013;-63
2021/09/14 06:32:41;;;;;;;0.20;0.20;;;;;;;9.79;84.22;97072.69;6185030;23;20058;-63
2021/09/14 06:35:07;;;;;;;0.20;0.20;;;;;;;9.71;84.62;97067.78;6185176;23;20009;-64
2021/09/14 06:37:33;;;;;;;0.20;0.20;;;;;;;9.65;84.67;97061.47;6185219;23;20009;-62
2021/09/14 06:39:59;;;;;;;0.15;0.15;;;;;;;9.61;85.14;97052.97;6184831;23;20350;-62
2021/09/14 06:42:25;;;;;;;0.20;0.20;;;;;;;9.60;85.34;97047.75;6185331;23;20015;-61
2021/09/14 06:44:51;;;;;;;0.20;0.20;;;;;;;9.61;85.57;97054.88;6183460;23;20096;-64
2021/09/14 06:47:17;;;;;;;0.10;0.10;;;;;;;9.59;85.40;97052.41;6185116;23;20088;-63
2021/09/14 06:49:43;;;;;;;0.20;0.20;;;;;;;9.58;85.74;97033.50;6185285;23;20044;-62
2021/09/14 06:52:08;;;;;;;0.10;0.10;;;;;;;9.55;85.72;97032.13;6185111;23;20013;-62
2021/09/14 06:54:34;;;;;;;0.20;0.20;;;;;;;9.50;86.02;97045.00;6185196;23;20485;-62
2021/09/14 06:57:00;;;;;;;0.10;0.10;;;;;;;9.44;85.93;97061.41;6184827;23;20346;-63
2021/09/14 06:59:25;;;;;;;0.20;0.20;;;;;;;9.42;86.02;97036.22;6184385;23;20025;-62
2021/09/14 07:01:51;;;;;;;0.20;0.20;;;;;;;9.41;85.96;97051.00;6185149;23;20013;-64
2021/09/14 07:04:17;;;;;;;0.10;0.10;;;;;;;9.42;86.10;97066.34;6185257;23;20035;-63
2021/09/14 07:06:42;;;;;;;0.20;0.20;;;;;;;9.42;86.23;97099.22;6184857;23;20019;-63
2021/09/14 07:09:09;;;;;;;0.20;0.20;;;;;;;9.33;86.07;97097.28;6184846;23;20063;-63
2021/09/14 07:11:35;;;;;;;0.10;0.10;;;;;;;9.23;86.45;97101.63;6184650;23;20084;-63
2021/09/14 07:14:00;;;;;;;0.20;0.20;;;;;;;9.20;86.54;97088.47;6184412;23;20088;-63
2021/09/14 07:16:26;;;;;;;0.20;0.20;;;;;;;9.16;86.70;97078.31;6184956;23;20427;-65
2021/09/14 07:18:52;;;;;;;0.20;0.20;;;;;;;9.11;86.74;97074.47;6184810;23;20013;-64
2021/09/14 07:21:18;;;;;;;0.20;0.20;;;;;;;9.12;86.63;97069.81;6184941;23;20047;-64
2021/09/14 07:23:43;;;;;;;0.10;0.10;;;;;;;9.11;86.88;97077.22;6158199;23;20013;-63
2021/09/14 07:26:09;;;;;;;0.20;0.20;;;;;;;9.15;86.82;97043.81;6184663;23;20108;-64
2021/09/14 07:28:35;;;;;;;0.20;0.20;;;;;;;9.16;86.74;97024.38;6184040;23;20458;-65
2021/09/14 07:31:01;;;;;;;0.10;0.10;;;;;;;9.15;86.68;97033.69;6184363;23;20009;-65
2021/09/14 07:33:27;;;;;;;0.20;0.20;;;;;;;9.23;86.94;97032.31;6184634;23;20005;-66
2021/09/14 07:35:53;;;;;;;0.20;0.20;;;;;;;9.34;86.91;97017.56;6184483;23;20070;-65
2021/09/14 07:38:18;;;;;;;0.20;0.20;;;;;;;9.55;86.77;97014.88;6184831;23;20009;-67
2021/09/14 07:40:44;;;;;;;0.20;0.20;;;;;;;9.89;86.13;97003.38;6184337;23;20048;-66
2021/09/14 07:43:10;;;;;;;0.20;0.20;;;;;;;10.27;85.59;96993.72;6184518;23;20032;-65
2021/09/14 07:45:36;;;;;;;0.20;0.20;;;;;;;10.67;84.74;96985.66;6184542;23;20140;-63
2021/09/14 07:48:01;;;;;;;0.20;0.20;;;;;;;11.10;84.29;96979.72;6184448;23;20016;-64
2021/09/14 07:50:27;;;;;;;0.20;0.20;;;;;;;11.49;83.53;96976.97;6184548;23;20020;-65
2021/09/14 07:52:53;;;;;;;0.20;0.20;;;;;;;11.80;83.42;96987.75;6184716;23;20019;-64
2021/09/14 07:55:19;;;;;;;0.20;0.20;;;;;;;12.12;82.69;96991.91;6184647;23;20055;-65
2021/09/14 07:57:45;;;;;;;0.20;0.20;;;;;;;12.42;82.47;96984.44;6180681;23;20013;-65
2021/09/14 08:00:11;;;;;;;0.15;0.15;;;;;;;12.49;82.61;96989.63;6183972;23;20091;-64
2021/09/14 08:02:37;;;;;;;0.20;0.20;;;;;;;12.54;82.85;96998.63;6185138;23;20016;-65
2021/09/14 08:05:03;;;;;;;0.20;0.20;;;;;;;12.69;82.90;97003.16;6184372;23;20088;-64
2021/09/14 08:07:29;;;;;;;0.20;0.20;;;;;;;12.88;83.11;97002.38;6184841;23;20009;-63
2021/09/14 08:09:55;;;;;;;0.10;0.10;;;;;;;12.91;83.16;97012.78;6184439;23;20005;-66
2021/09/14 08:12:21;;;;;;;0.20;0.20;;;;;;;12.79;83.65;97015.97;6184365;23;20009;-66
2021/09/14 08:14:47;;;;;;;0.10;0.10;;;;;;;12.70;84.51;97010.28;6182806;23;20009;-64
2021/09/14 08:17:15;;;;;;;0.10;0.10;;;;;;;12.64;84.81;97010.66;6157742;23;20071;-63
2021/09/14 08:19:42;;;;;;;0.10;0.10;;;;;;;12.65;85.00;97002.09;6184799;23;20419;-64
2021/09/14 08:22:12;;;;;;;0.10;0.10;;;;;;;12.73;84.96;96995.13;6184383;23;20016;-64
2021/09/14 08:24:38;;;;;;;0.10;0.10;;;;;;;12.90;84.68;96984.44;6183246;23;20091;-63
2021/09/14 08:27:04;;;;;;;0.10;0.10;;;;;;;13.20;84.38;96982.38;6185875;23;20055;-63
2021/09/14 08:29:30;;;;;;;0.10;0.10;;;;;;;13.60;83.61;96979.38;6185448;23;20017;-63
2021/09/14 08:31:57;;;;;;;0.10;0.10;;;;;;;13.93;83.07;96982.16;6186067;23;20019;-64
2021/09/14 08:34:23;;;;;;;0.10;0.10;;;;;;;14.06;83.03;96988.81;6185919;23;20091;-64
2021/09/14 08:36:48;;;;;;;0.10;0.10;;;;;;;14.20;83.14;96978.66;6186394;23;20445;-63
2021/09/14 08:39:14;;;;;;;0.10;0.10;;;;;;;14.46;82.86;96980.94;6185749;23;20063;-64
2021/09/14 08:41:42;;;;;;;0.10;0.10;;;;;;;14.64;82.73;96979.25;6186198;23;20052;-64
2021/09/14 08:44:08;;;;;;;0.10;0.10;;;;;;;14.77;82.72;96983.97;6186076;23;20058;-65
2021/09/14 08:46:35;;;;;;;0.10;0.10;;;;;;;14.82;82.93;96986.59;6186428;23;20015;-65
2021/09/14 08:49:01;;;;;;;0.10;0.10;;;;;;;14.91;83.17;96978.41;6186316;23;20059;-66
2021/09/14 08:51:27;;;;;;;0.10;0.10;;;;;;;15.01;83.27;96969.09;6185787;23;20080;-64
2021/09/14 08:53:53;;;;;;;0.10;0.10;;;;;;;14.96;83.38;96978.31;6186415;23;20013;-64
2021/09/14 08:56:19;;;;;;;0.10;0.10;;;;;;;14.86;83.84;96975.78;6186047;23;20009;-64
2021/09/14 08:58:56;;;;;;;0.10;0.10;;;;;;;14.79;84.16;96983.66;6185320;23;20017;-66
2021/09/14 09:01:22;;;;;;;0.15;0.15;;;;;;;14.80;84.43;96988.88;6186134;23;20040;-65
2021/09/14 09:03:56;;;;;;;0.73;0.52;;;;;;;14.92;84.35;96980.06;6186008;23;20461;-64
2021/09/14 09:06:30;;;;;;;0.30;0.30;;;;;;;15.07;84.20;96976.16;6186083;23;20019;-63
2021/09/14 09:09:16;;;;;;;1.10;0.45;;;;;;;15.17;84.10;96977.88;6185813;23;20143;-64
2021/09/14 09:11:52;;;;;;;1.08;0.57;;;;;;;15.24;84.22;96965.28;6186507;23;20013;-63
2021/09/14 09:14:18;;;;;;;0.45;0.45;;;;;;;15.18;84.27;96977.56;6186224;23;20084;-63
2021/09/14 09:16:44;;;;;;;0.55;0.55;;;;;;;15.07;84.43;96974.22;6186191;23;20047;-67
2021/09/14 09:19:09;;;;;;;0.75;0.40;;;;;;;15.06;84.72;96977.28;6185563;23;20067;-66
2021/09/14 09:21:39;;;;;;;0.35;0.35;;;;;;;15.07;85.11;96977.00;6185911;23;20079;-63
2021/09/14 09:24:07;;;;;;;0.70;0.70;;;;;;;15.04;85.12;96979.53;6185903;23;20013;-64
2021/09/14 09:26:37;;;;;;;0.30;0.30;;;;;;;15.05;85.20;96973.69;6185753;23;20446;-63
2021/09/14 09:29:05;;;;;;;0.40;0.40;;;;;;;15.09;85.18;96968.38;6185144;23;20017;-63
2021/09/14 09:31:33;;;;;;;0.80;0.43;;;;;;;15.15;85.19;96967.16;6184000;23;20017;-63
2021/09/14 09:34:07;;;;;;;0.20;0.20;;;;;;;15.26;85.00;96969.69;6185476;23;20027;-65
2021/09/14 09:36:37;;;;;;;5.07;0.80;;;;;;;15.35;84.88;96967.81;6185051;23;20019;-63
2021/09/14 09:39:05;;;;;;;0.95;0.95;;;;;;;15.39;84.68;96969.63;6185745;23;20020;-64
2021/09/14 09:41:34;;;;;;;0.32;0.32;;;;;;;15.48;84.81;96975.25;6185758;23;20009;-64
2021/09/14 09:44:11;;;;;;;1.27;0.50;;;;;;;15.62;84.70;96977.16;6185532;23;20342;-64
2021/09/14 09:46:37;;;;;;;0.50;0.50;;;;;;;15.74;84.68;96978.22;6185488;23;20036;-64
2021/09/14 09:49:10;;;;;;;0.38;0.38;;;;;;;15.87;84.48;96982.13;6185012;23;20012;-63
2021/09/14 09:51:37;;;;;;;1.08;0.93;;;;;;;15.99;84.26;96983.47;6185728;23;20446;-63
2021/09/14 09:54:05;;;;;;;2.05;0.80;;;;;;;16.08;84.21;96987.16;6184017;23;20402;-63
2021/09/14 09:56:32;;;;;;;0.32;0.32;;;;;;;16.16;84.16;96989.13;6184175;23;20358;-64
2021/09/14 09:59:02;;;;;;;0.35;0.35;;;;;;;16.28;84.21;97002.41;6183430;23;20009;-62
2021/09/14 10:01:28;;;;;;;0.45;0.45;;;;;;;16.49;83.78;97012.94;6183959;23;20092;-63
2021/09/14 10:04:16;;;;;;;0.22;0.22;;;;;;;16.86;83.53;97013.59;6184039;23;20410;-63
2021/09/14 10:06:46;;;;;;;1.35;0.90;;;;;;;17.02;82.96;97014.84;6183914;23;20009;-63
2021/09/14 10:09:12;;;;;;;1.38;1.27;;;;;;;17.17;83.06;97021.91;6183824;23;20064;-64
2021/09/14 10:11:38;;;;;;;0.20;0.20;;;;;;;17.34;82.99;97027.50;6184443;23;20016;-63
2021/09/14 10:14:11;;;;;;;0.60;0.60;;;;;;;17.59;82.60;97022.31;6184921;23;20016;-63
2021/09/14 10:16:44;;;;;;;1.98;0.63;;;;;;;17.79;82.70;97026.41;6176227;23;20458;-63
2021/09/14 10:19:15;;;;;;;0.45;0.45;;;;;;;18.06;82.21;97024.47;6182825;23;20017;-63
2021/09/14 10:21:43;;;;;;;1.05;1.05;;;;;;;18.30;82.02;97035.09;6183216;23;20023;-64
2021/09/14 10:24:22;;;;;;;0.60;0.60;;;;;;;18.42;81.90;97033.56;6181032;23;20068;-64
2021/09/14 10:26:48;;;;;;;0.10;0.10;;;;;;;18.54;81.78;97039.28;6183019;23;20035;-67
2021/09/14 10:29:17;;;;;;;0.40;0.40;;;;;;;18.65;81.89;97035.00;6182422;23;20013;-63
2021/09/14 10:31:44;;;;;;;1.45;0.60;;;;;;;18.66;82.05;97038.59;6182647;23;20417;-63
2021/09/14 10:34:12;;;;;;;0.75;0.75;;;;;;;18.58;82.14;97031.09;6155251;23;20017;-64
2021/09/14 10:36:42;;;;;;;0.55;0.55;;;;;;;18.53;82.58;97030.13;6181929;23;20092;-63
2021/09/14 10:39:25;;;;;;;0.55;0.55;;;;;;;18.52;82.79;97024.88;6181888;23;20017;-64
2021/09/14 10:41:52;;;;;;;0.23;0.23;;;;;;;18.51;82.70;97028.84;6181440;23;20016;-62
2021/09/14 10:44:30;;;;;;;0.77;0.77;;;;;;;18.72;82.71;97028.94;6181870;23;20259;-64
2021/09/14 10:47:11;;;;;;;3.45;0.82;;;;;;;18.86;82.19;97029.56;6181691;23;20017;-62
2021/09/14 10:49:44;;;;;;;0.98;0.82;;;;;;;18.82;82.39;97019.44;6181845;23;20084;-63
2021/09/14 10:52:10;;;;;;;0.40;0.40;;;;;;;18.73;83.07;97027.78;6181619;23;20020;-67
2021/09/14 10:54:47;;;;;;;0.43;0.43;;;;;;;18.67;82.90;97023.56;6180459;23;20350;-64
2021/09/14 10:57:13;;;;;;;0.30;0.30;;;;;;;18.62;83.00;97026.50;6180184;23;20087;-66
2021/09/14 10:59:46;;;;;;;0.50;0.50;;;;;;;18.59;83.01;97029.97;6181295;23;20048;-64
2021/09/14 11:02:13;;;;;;;1.08;0.52;;;;;;;18.46;83.58;97027.06;6181532;23;20438;-65
2021/09/14 11:04:41;;;;;;;0.20;0.20;;;;;;;18.41;83.80;97018.88;6181212;23;20013;-65
2021/09/14 11:07:17;;;;;;;0.30;0.30;;;;;;;18.53;83.57;97013.44;6179485;23;20013;-62
2021/09/14 11:09:43;;;;;;;1.25;0.68;;;;;;;18.77;83.09;97028.78;6180172;23;20040;-66
2021/09/14 11:12:19;;;;;;;0.85;0.43;;;;;;;18.86;83.21;97020.41;6181846;23;20020;-65
2021/09/14 11:14:45;;;;;;;0.32;0.32;;;;;;;18.91;82.89;97023.81;6183318;23;20009;-65
2021/09/14 11:17:30;;;;;;;0.40;0.40;;;;;;;19.04;82.79;97012.81;6182577;23;20016;-64
2021/09/14 11:20:09;;;;;;;0.28;0.28;;;;;;;18.98;82.86;97009.41;6182868;23;20361;-65
2021/09/14 11:22:37;;;;;;;1.25;0.88;;;;;;;18.82;83.02;97013.88;6182646;23;20024;-69
2021/09/14 11:25:04;;;;;;;0.30;0.30;;;;;;;18.62;83.66;97018.19;6182223;23;20088;-63
2021/09/14 11:27:30;;;;;;;0.35;0.35;;;;;;;18.43;84.62;97015.78;6182118;23;20031;-63
2021/09/14 11:29:58;;;;;;;0.47;0.47;;;;;;;18.23;84.58;97022.81;6182035;23;20044;-63
2021/09/14 11:32:26;;;;;;;0.38;0.32;;;;;;;18.10;84.84;97019.91;6181600;23;20019;-64
2021/09/14 11:34:52;;;;;;;0.20;0.20;;;;;;;18.03;85.07;97017.63;6180910;23;20108;-67
2021/09/14 11:37:31;;;;;;;0.38;0.38;;;;;;;18.05;84.85;97017.31;6181555;23;20013;-66
2021/09/14 11:40:00;;;;;;;0.30;0.30;;;;;;;18.13;84.78;97007.34;6181442;23;20019;-64
2021/09/14 11:42:26;;;;;;;0.63;0.63;;;;;;;18.20;84.84;97007.66;6181386;23;20013;-67
2021/09/14 11:45:05;;;;;;;0.40;0.40;;;;;;;18.21;84.83;97009.25;6181384;23;20071;-69
2021/09/14 11:47:41;;;;;;;0.70;0.70;;;;;;;18.15;84.83;97005.88;6181581;23;20016;-64
2021/09/14 11:50:07;;;;;;;1.73;0.90;;;;;;;18.05;84.94;97011.75;6154057;23;20032;-65
2021/09/14 11:52:33;;;;;;;0.73;0.65;;;;;;;17.99;85.10;97007.50;6181736;23;20013;-67
2021/09/14 11:55:06;;;;;;;1.77;0.43;;;;;;;17.93;85.28;97008.81;6181491;23;20009;-64
2021/09/14 11:57:32;;;;;;;0.80;0.70;;;;;;;17.82;85.39;97019.41;6180368;23;20063;-63
2021/09/14 11:59:57;;;;;;;0.95;0.95;;;;;;;17.72;85.49;97020.53;6183424;23;20024;-64
2021/09/14 12:02:23;;;;;;;0.38;0.38;;;;;;;17.62;85.82;97027.22;6184485;23;20089;-66
2021/09/14 12:04:59;;;;;;;0.28;0.28;;;;;;;17.50;85.84;97015.94;6184410;23;20079;-64
2021/09/14 12:07:25;;;;;;;0.50;0.50;;;;;;;17.42;86.20;97025.88;6184490;23;20101;-64
2021/09/14 12:10:02;;;;;;;0.30;0.30;;;;;;;17.34;86.11;97021.97;6184443;23;20116;-62
2021/09/14 12:12:28;;;;;;;1.38;0.40;;;;;;;17.29;85.99;97043.47;6184829;23;20012;-63
2021/09/14 12:14:56;;;;;;;0.20;0.20;;;;;;;17.21;86.31;97033.16;6184300;23;20039;-63
2021/09/14 12:17:28;;;;;;;0.50;0.50;;;;;;;17.08;85.89;97054.34;6183069;23;20068;-63
2021/09/14 12:19:53;;;;;;;0.35;0.35;;;;;;;16.92;86.09;97082.47;6184830;23;20013;-63
2021/09/14 12:22:19;;;;;;;0.95;0.68;;;;;;;16.78;86.14;97090.88;6184456;23;20013;-65
2021/09/14 12:24:45;;;;;;;0.45;0.40;;;;;;;16.61;86.03;97083.25;6183116;23;20040;-65
2021/09/14 12:27:15;;;;;;;0.63;0.50;;;;;;;16.43;86.15;97096.19;6184595;23;20095;-64
2021/09/14 12:29:41;;;;;;;0.60;0.60;;;;;;;16.25;86.38;97086.94;6184061;23;20519;-62